Time;durP1;ratioP1;P1;durP2;ratioP2;P2;SDS_P1;SDS_P2;PMS_P1;PMS_P2;Temp;Humidity;BMP_temperature;BMP_pressure;BME280_temperature;BME280_humidity;BME280_pressure;Samples;Min_cycle;Max_cycle;Signal;HPM_P1;HPM_P2
2023/10/12 00:00:24;;;;;;;;;6.00;6.00;;;;;27.02;40.89;101171.19;4826111;29;45546;-83
2023/10/12 00:02:50;;;;;;;;;5.33;5.33;;;;;27.02;40.95;101168.53;4826001;29;45397;-83
2023/10/12 00:05:18;;;;;;;;;5.00;5.00;;;;;27.07;40.87;101183.91;4825877;29;47229;-83
2023/10/12 00:07:45;;;;;;;;;5.33;5.33;;;;;26.92;40.80;101144.09;4825842;29;45279;-82
2023/10/12 00:12:46;;;;;;;;;5.67;5.67;;;;;27.02;40.44;101181.88;4825820;29;45477;-82
2023/10/12 00:18:08;;;;;;;;;5.67;5.67;;;;;26.99;40.39;101234.84;4825780;29;45424;-82
2023/10/12 00:20:38;;;;;;;;;6.00;4.00;;;;;27.06;40.51;101238.38;4825877;29;45340;-82
2023/10/12 00:23:13;;;;;;;;;6.33;5.33;;;;;27.08;40.80;101217.63;4825599;29;45388;-82
2023/10/12 00:25:47;;;;;;;;;7.33;6.00;;;;;27.04;40.39;101192.34;4819191;29;46648;-82
2023/10/12 00:28:17;;;;;;;;;4.33;4.33;;;;;26.70;40.52;101155.00;4806950;29;45491;-82
2023/10/12 00:30:47;;;;;;;;;5.00;5.00;;;;;26.93;41.08;101221.28;4807542;29;45388;-83
2023/10/12 00:33:13;;;;;;;;;4.33;4.33;;;;;26.94;40.94;101217.59;4807364;29;45346;-83
2023/10/12 00:35:39;;;;;;;;;4.00;4.00;;;;;26.94;40.94;101206.94;4807005;29;45422;-80
2023/10/12 00:38:17;;;;;;;;;6.00;5.33;;;;;27.03;40.46;101222.75;4806870;29;45308;-82
2023/10/12 00:40:55;;;;;;;;;5.33;5.33;;;;;27.03;41.10;101236.94;4807439;29;45452;-81
2023/10/12 00:43:21;;;;;;;;;6.00;5.00;;;;;27.06;40.46;101247.19;4806902;29;45417;-82
2023/10/12 00:45:47;;;;;;;;;7.33;5.00;;;;;26.93;41.24;101223.16;4807614;29;45349;-82
2023/10/12 00:48:16;;;;;;;;;5.33;5.33;;;;;27.06;40.66;101246.38;4807184;29;45498;-82
2023/10/12 00:50:44;;;;;;;;;7.00;6.00;;;;;26.99;40.49;101195.63;4807332;29;45306;-80
2023/10/12 00:53:32;;;;;;;;;8.33;5.33;;;;;27.06;40.54;101230.34;4806795;29;45592;-82
2023/10/12 00:55:57;;;;;;;;;7.33;6.00;;;;;27.03;40.91;101252.13;4806376;29;47086;-82
2023/10/12 00:58:23;;;;;;;;;5.33;5.33;;;;;26.96;40.99;101247.59;4806970;29;45384;-82
2023/10/12 01:00:51;;;;;;;;;6.00;5.00;;;;;27.05;41.06;101264.25;4804939;29;45296;-82
2023/10/12 01:08:43;;;;;;;;;6.00;5.00;;;;;27.06;41.10;101299.78;4825366;29;45362;-82
2023/10/12 01:16:42;;;;;;;;;4.00;4.00;;;;;27.06;41.16;101281.91;4824772;29;45928;-83
2023/10/12 01:19:07;;;;;;;;;5.00;5.00;;;;;26.95;40.61;101235.28;4824938;29;45255;-80
2023/10/12 01:21:36;;;;;;;;;4.00;4.00;;;;;26.90;40.94;101212.88;4825392;29;45434;-82
2023/10/12 01:24:11;;;;;;;;;5.33;5.00;;;;;26.83;40.56;101213.69;4824937;29;45398;-83
2023/10/12 01:26:44;;;;;;;;;5.00;5.00;;;;;27.06;40.52;101255.19;4810522;29;47109;-81
2023/10/12 01:29:21;;;;;;;;;4.00;4.00;;;;;27.06;41.14;101249.84;4806696;29;45471;-83
2023/10/12 01:31:53;;;;;;;;;5.00;5.00;;;;;27.05;40.77;101245.56;4806814;29;45329;-83
2023/10/12 01:34:24;;;;;;;;;6.33;5.67;;;;;27.06;41.21;101259.72;4805182;29;45667;-83
2023/10/12 01:36:49;;;;;;;;;4.00;4.00;;;;;27.04;40.69;101249.25;4806282;29;46054;-83
2023/10/12 01:39:15;;;;;;;;;5.33;5.33;;;;;27.05;41.03;101248.22;4806259;29;45371;-82
2023/10/12 01:41:41;;;;;;;;;5.00;5.00;;;;;27.05;40.73;101255.41;4806363;29;45464;-82
2023/10/12 01:44:11;;;;;;;;;5.67;5.67;;;;;27.01;41.14;101254.19;4806401;29;45478;-82
2023/10/12 01:46:39;;;;;;;;;4.00;3.67;;;;;27.02;41.20;101264.66;4806206;29;46353;-82
2023/10/12 01:49:08;;;;;;;;;6.00;5.00;;;;;27.05;40.68;101282.94;4806418;29;45282;-82
2023/10/12 01:51:39;;;;;;;;;7.00;6.00;;;;;26.96;41.25;101271.63;4806220;29;45442;-82
2023/10/12 01:54:05;;;;;;;;;6.00;4.67;;;;;26.91;41.41;101246.56;4806050;29;45456;-82
2023/10/12 01:56:32;;;;;;;;;4.33;4.33;;;;;26.91;41.15;101252.72;4805885;29;46677;-82
2023/10/12 01:58:58;;;;;;;;;7.00;4.00;;;;;26.87;40.91;101258.69;4806086;29;45413;-80
2023/10/12 02:01:24;;;;;;;;;7.00;4.33;;;;;26.99;41.46;101293.59;4806024;29;45355;-83
2023/10/12 02:03:54;;;;;;;;;5.67;5.00;;;;;27.05;40.80;101303.47;4810968;29;45372;-82
2023/10/12 02:06:24;;;;;;;;;6.33;6.33;;;;;26.92;40.86;101286.41;4823980;29;47226;-82
2023/10/12 02:08:52;;;;;;;;;6.00;6.00;;;;;26.92;41.38;101270.41;4823901;29;45406;-82
2023/10/12 02:13:47;;;;;;;;;4.67;4.67;;;;;27.04;40.71;101259.91;4827548;29;45251;-82
2023/10/12 02:16:23;;;;;;;;;6.67;6.00;;;;;26.96;41.49;101244.91;4827402;29;46040;-82
2023/10/12 02:18:48;;;;;;;;;6.00;5.67;;;;;27.05;41.43;101253.56;4827323;29;45403;-82
2023/10/12 02:21:19;;;;;;;;;7.00;5.67;;;;;26.89;40.67;101214.72;4826286;29;45736;-83
2023/10/12 02:23:58;;;;;;;;;5.00;5.00;;;;;26.89;41.10;101214.72;4827255;29;45398;-82
2023/10/12 02:26:38;;;;;;;;;4.00;4.00;;;;;27.05;41.57;101247.41;4814775;29;45805;-82
2023/10/12 02:29:12;;;;;;;;;7.00;6.00;;;;;27.03;41.47;101247.63;4808817;29;45312;-82
2023/10/12 02:34:16;;;;;;;;;5.00;5.00;;;;;27.05;40.85;101255.41;4808842;29;45381;-81
2023/10/12 02:36:59;;;;;;;;;5.67;5.67;;;;;27.04;40.79;101251.91;4808835;29;45372;-81
2023/10/12 02:39:26;;;;;;;;;4.00;4.00;;;;;26.88;41.48;101236.31;4808402;29;45273;-80
2023/10/12 02:42:07;;;;;;;;;4.67;4.67;;;;;27.00;41.27;101253.34;4809242;29;45472;-82
2023/10/12 02:47:22;;;;;;;;;5.33;5.33;;;;;27.01;41.35;101235.50;4808767;29;45382;-82
2023/10/12 02:49:51;;;;;;;;;5.00;5.00;;;;;27.04;41.38;101237.72;4808725;29;45434;-81
2023/10/12 02:52:19;;;;;;;;;6.00;5.00;;;;;27.04;41.50;101238.56;4808380;29;45369;-81
2023/10/12 02:54:51;;;;;;;;;6.00;5.00;;;;;27.04;41.49;101243.91;4808695;29;45340;-82
2023/10/12 02:57:25;;;;;;;;;7.33;6.00;;;;;27.02;41.65;101235.28;4808888;29;46440;-82
2023/10/12 03:00:00;;;;;;;;;6.00;4.00;;;;;27.04;41.60;101241.22;4808666;29;45405;-83
2023/10/12 03:02:34;;;;;;;;;5.00;5.00;;;;;26.88;41.50;101220.28;4809067;29;45422;-82
2023/10/12 03:05:04;;;;;;;;;4.67;4.67;;;;;27.00;41.05;101218.66;4821533;29;45533;-82
2023/10/12 03:07:30;;;;;;;;;6.67;6.00;;;;;26.89;40.88;101203.22;4826380;29;46935;-82
2023/10/12 03:09:58;;;;;;;;;3.00;3.00;;;;;27.03;41.55;101217.41;4826848;29;45377;-81
2023/10/12 03:12:25;;;;;;;;;5.00;5.00;;;;;26.94;40.95;101204.25;4827144;29;45456;-82
2023/10/12 03:14:51;;;;;;;;;5.00;5.00;;;;;26.94;41.54;101214.13;4826742;29;45482;-82
2023/10/12 03:17:20;;;;;;;;;6.00;6.00;;;;;27.03;41.09;101210.22;4826549;29;47072;-81
2023/10/12 03:19:55;;;;;;;;;6.00;5.00;;;;;26.88;40.92;101198.94;4826482;29;45352;-82
2023/10/12 03:22:31;;;;;;;;;6.67;6.00;;;;;26.84;41.71;101209.19;4825385;29;45385;-82
2023/10/12 03:25:13;;;;;;;;;5.00;5.00;;;;;27.03;41.46;101242.28;4825557;29;45338;-82
2023/10/12 03:27:40;;;;;;;;;5.33;5.33;;;;;27.03;41.23;101239.59;4808019;29;47240;-82
2023/10/12 03:30:10;;;;;;;;;4.00;4.00;;;;;26.98;41.54;101219.88;4808172;29;45384;-82
2023/10/12 03:32:35;;;;;;;;;6.00;6.00;;;;;26.95;41.52;101207.75;4808186;29;45349;-82
2023/10/12 03:35:04;;;;;;;;;4.00;4.00;;;;;26.89;41.60;101200.56;4806823;29;45415;-82
2023/10/12 03:37:45;;;;;;;;;4.00;4.00;;;;;27.03;41.69;101210.22;4807883;29;46288;-81
2023/10/12 03:42:55;;;;;;;;;4.67;3.67;;;;;26.91;41.51;101198.50;4808130;29;45469;-82
2023/10/12 03:45:38;;;;;;;;;4.67;4.67;;;;;26.83;41.62;101187.00;4806624;29;45338;-82
2023/10/12 03:48:15;;;;;;;;;4.67;4.67;;;;;26.94;41.58;101212.28;4807662;29;46531;-82
2023/10/12 03:53:45;;;;;;;;;6.00;5.00;;;;;26.89;41.21;101206.72;4805719;29;45419;-82
2023/10/12 03:56:14;;;;;;;;;5.33;5.33;;;;;26.72;41.09;101163.59;4805768;29;45526;-82
2023/10/12 03:58:46;;;;;;;;;3.00;2.67;;;;;26.94;41.14;101209.59;4805606;29;46226;-82
2023/10/12 04:01:13;;;;;;;;;5.00;5.00;;;;;27.03;41.52;101226.25;4805930;29;45443;-82
2023/10/12 04:03:39;;;;;;;;;6.00;5.00;;;;;27.01;41.62;101212.25;4808279;29;45415;-82
2023/10/12 04:06:15;;;;;;;;;6.00;5.00;;;;;27.01;41.52;101222.94;4823170;29;45280;-82
2023/10/12 04:08:49;;;;;;;;;4.33;4.00;;;;;26.99;41.50;101218.84;4823645;29;46383;-82
2023/10/12 04:14:11;;;;;;;;;6.00;6.00;;;;;26.91;41.46;101201.16;4823851;29;45471;-81
2023/10/12 04:16:45;;;;;;;;;5.67;4.67;;;;;26.77;41.25;101171.81;4823598;29;45427;-81
2023/10/12 04:19:15;;;;;;;;;5.00;5.00;;;;;26.86;41.87;101188.44;4823048;29;46123;-82
2023/10/12 04:21:56;;;;;;;;;4.00;4.00;;;;;26.99;41.47;101208.16;4823562;29;45492;-82
2023/10/12 04:24:27;;;;;;;;;6.00;3.67;;;;;27.02;41.20;101221.94;4823661;29;45397;-81
2023/10/12 04:27:38;;;;;;;;;4.33;4.00;;;;;27.02;41.19;101223.75;4823374;29;45513;-81
2023/10/12 04:29:57;;;;;;;;;6.67;5.00;;;;;26.92;41.37;101197.47;4817855;29;45604;-82
2023/10/12 04:32:52;;;;;;;;;5.00;5.00;;;;;26.98;41.86;101218.03;4807463;29;45308;-81
2023/10/12 04:35:44;;;;;;;;;6.33;5.33;;;;;26.88;41.71;101196.25;4806803;29;45371;-81
2023/10/12 04:38:08;;;;;;;;;5.33;5.00;;;;;26.98;41.21;101222.53;4806879;29;45324;-81
2023/10/12 04:40:37;;;;;;;;;6.33;4.00;;;;;26.97;41.85;101213.72;4807042;29;46595;-81
2023/10/12 04:43:06;;;;;;;;;4.00;4.00;;;;;26.89;41.71;101203.22;4807157;29;45424;-82
2023/10/12 04:46:05;;;;;;;;;3.00;3.00;;;;;27.00;41.86;101221.31;4806983;29;45305;-82
2023/10/12 04:48:22;;;;;;;;;4.00;4.00;;;;;27.00;41.48;101223.97;4806623;29;45456;-82
2023/10/12 04:50:59;;;;;;;;;4.33;4.33;;;;;26.84;41.50;101202.00;4806714;29;47374;-82
2023/10/12 04:53:35;;;;;;;;;3.67;3.67;;;;;26.81;41.75;101207.75;4806707;29;45342;-81
2023/10/12 04:56:09;;;;;;;;;5.33;3.67;;;;;27.01;41.97;101238.97;4806782;29;45394;-81
2023/10/12 04:58:36;;;;;;;;;5.00;4.67;;;;;27.01;41.99;101243.50;4805483;29;45547;-81
2023/10/12 05:01:19;;;;;;;;;3.00;3.00;;;;;26.87;41.43;101222.13;4806455;29;46295;-82
2023/10/12 05:04:05;;;;;;;;;4.67;4.67;;;;;26.98;41.33;101234.06;4809983;29;45316;-81
2023/10/12 05:06:31;;;;;;;;;4.00;4.00;;;;;27.01;41.98;101244.31;4824881;29;45286;-81
2023/10/12 05:08:57;;;;;;;;;4.00;4.00;;;;;26.96;41.35;101233.41;4824920;29;45454;-81
2023/10/12 05:11:27;;;;;;;;;4.00;4.00;;;;;27.02;41.20;101250.47;4824987;29;45657;-81
2023/10/12 05:13:53;;;;;;;;;6.00;6.00;;;;;26.92;41.82;101234.84;4825003;29;45453;-82
2023/10/12 05:16:26;;;;;;;;;5.67;5.00;;;;;27.03;41.82;101252.13;4824875;29;45522;-81
2023/10/12 05:18:52;;;;;;;;;4.00;4.00;;;;;26.95;41.86;101235.28;4824521;29;45460;-81
2023/10/12 05:21:17;;;;;;;;;5.00;5.00;;;;;26.97;41.88;101243.06;4824773;29;46372;-81
2023/10/12 05:23:42;;;;;;;;;4.33;3.33;;;;;26.89;41.90;101228.09;4824744;29;45304;-83
2023/10/12 05:26:08;;;;;;;;;4.00;4.00;;;;;26.97;41.43;101243.06;4814687;29;45492;-79
2023/10/12 05:28:36;;;;;;;;;4.00;4.00;;;;;27.02;41.40;101253.97;4806260;29;45551;-75
2023/10/12 05:36:17;;;;;;;;;7.00;4.00;;;;;27.00;41.68;101256.03;4806957;29;45514;-85
2023/10/12 05:38:52;;;;;;;;;7.67;4.67;;;;;27.05;42.17;101263.41;4807494;29;45410;-83
2023/10/12 05:41:34;;;;;;;;;7.00;5.00;;;;;26.99;42.00;101250.88;4823413;29;45482;-82
2023/10/12 05:44:01;;;;;;;;;5.00;5.00;;;;;27.07;41.88;101264.03;4824316;29;45595;-76
2023/10/12 05:46:32;;;;;;;;;3.00;3.00;;;;;27.07;41.82;101264.84;4826364;29;45352;-76
2023/10/12 05:48:58;;;;;;;;;6.33;5.00;;;;;27.09;41.94;101250.50;4821792;29;45448;-79
2023/10/12 05:51:24;;;;;;;;;5.33;5.00;;;;;27.09;42.59;101261.97;4818315;29;45967;-77
2023/10/12 05:53:56;;;;;;;;;4.00;4.00;;;;;27.11;41.91;101259.94;4825411;29;45533;-76
2023/10/12 05:56:23;;;;;;;;;4.33;4.00;;;;;27.00;42.07;101241.84;4818948;29;45444;-78
2023/10/12 05:58:48;;;;;;;;;4.00;3.00;;;;;27.11;42.57;101262.59;4825441;29;45530;-80
2023/10/12 06:01:31;;;;;;;;;5.33;5.33;;;;;27.10;42.58;101257.47;4827013;29;46296;-80
2023/10/12 06:03:57;;;;;;;;;5.00;5.00;;;;;27.10;42.12;101254.78;4825364;29;45315;-81
2023/10/12 06:06:23;;;;;;;;;2.00;2.00;;;;;27.09;42.25;101261.16;4817719;29;45305;-80
2023/10/12 06:08:49;;;;;;;;;5.00;4.00;;;;;26.89;42.19;101233.41;4816843;29;45557;-80
2023/10/12 06:11:18;;;;;;;;;6.67;4.00;;;;;27.10;42.35;101266.28;4824625;29;46448;-73
2023/10/12 06:13:44;;;;;;;;;4.00;3.67;;;;;27.10;41.90;101274.31;4827072;29;45279;-77
2023/10/12 06:16:16;;;;;;;;;3.67;3.67;;;;;27.10;42.43;101276.97;4827025;29;45407;-77
2023/10/12 06:18:44;;;;;;;;;4.33;4.33;;;;;27.12;42.08;101282.94;4827568;29;45480;-83
2023/10/12 06:21:17;;;;;;;;;4.00;4.00;;;;;27.11;41.83;101291.16;4827815;29;45287;-76
2023/10/12 06:23:48;;;;;;;;;4.00;4.00;;;;;27.06;41.86;101278.44;4827492;29;45359;-78
2023/10/12 06:26:29;;;;;;;;;6.67;4.67;;;;;26.95;42.08;101256.66;4827297;29;45308;-75
2023/10/12 06:28:58;;;;;;;;;6.00;4.67;;;;;27.11;42.13;101286.66;4827015;29;45458;-75
2023/10/12 06:31:31;;;;;;;;;4.00;4.00;;;;;26.88;42.35;101250.44;4826559;29;47106;-76
2023/10/12 06:34:04;;;;;;;;;5.33;5.33;;;;;26.99;42.68;101262.38;4827073;29;45345;-76
2023/10/12 06:36:38;;;;;;;;;6.00;6.00;;;;;27.12;42.60;101282.09;4827074;29;45283;-75
2023/10/12 06:44:28;;;;;;;;;6.67;5.33;;;;;27.12;41.91;101292.78;4826485;29;45430;-75
2023/10/12 06:46:57;;;;;;;;;10.00;5.00;;;;;27.10;42.11;101298.34;4827119;29;45344;-76
2023/10/12 06:49:33;;;;;;;;;5.33;5.33;;;;;27.10;42.04;101301.00;4826904;29;45481;-76
2023/10/12 06:52:01;;;;;;;;;5.00;4.33;;;;;27.07;42.01;101299.56;4826759;29;45568;-76
2023/10/12 07:02:29;;;;;;;;;7.00;4.00;;;;;26.91;42.12;101284.75;4826708;29;45969;-76
2023/10/12 07:04:59;;;;;;;;;5.00;5.00;;;;;27.02;42.32;101298.53;4826437;29;45404;-75
2023/10/12 07:07:30;;;;;;;;;5.67;5.67;;;;;27.04;41.72;101304.50;4826603;29;45449;-75
2023/10/12 07:12:41;;;;;;;;;6.33;4.67;;;;;27.04;42.50;101321.34;4826177;29;45997;-75
2023/10/12 07:15:31;;;;;;;;;5.67;5.67;;;;;26.89;42.66;101302.84;4826420;29;45340;-75
2023/10/12 07:17:57;;;;;;;;;4.00;4.00;;;;;27.07;42.15;101336.13;4826596;29;45314;-75
2023/10/12 07:20:40;;;;;;;;;6.67;5.67;;;;;26.98;42.14;101324.00;4826528;29;45554;-76
2023/10/12 07:23:11;;;;;;;;;4.67;4.67;;;;;27.06;41.96;101324.63;4826258;29;46477;-76
2023/10/12 07:25:37;;;;;;;;;4.00;4.00;;;;;26.96;42.21;101306.34;4819982;29;45440;-75
2023/10/12 07:28:05;;;;;;;;;7.67;7.67;;;;;27.02;42.46;101319.91;4807865;29;45376;-76
2023/10/12 07:30:31;;;;;;;;;6.00;5.00;;;;;26.83;42.45;101291.09;4807968;29;45449;-75
2023/10/12 07:33:00;;;;;;;;;5.00;5.00;;;;;27.06;42.32;101321.16;4807684;29;47018;-75
2023/10/12 07:35:34;;;;;;;;;7.00;5.00;;;;;26.95;42.62;101306.53;4807756;29;45511;-76
2023/10/12 07:38:00;;;;;;;;;5.67;5.67;;;;;26.92;42.50;101294.41;4807949;29;45359;-76
2023/10/12 07:40:34;;;;;;;;;7.00;5.00;;;;;27.07;42.45;101323.59;4807812;29;45259;-75
2023/10/12 07:43:14;;;;;;;;;6.00;4.00;;;;;26.99;42.73;101301.59;4807255;29;45485;-75
2023/10/12 07:45:48;;;;;;;;;5.00;5.00;;;;;26.94;42.40;101304.88;4807627;29;45492;-75
2023/10/12 07:48:29;;;;;;;;;6.00;5.00;;;;;26.96;42.50;101308.16;4806525;29;45345;-75
2023/10/12 07:50:56;;;;;;;;;7.33;5.00;;;;;27.08;41.92;101329.78;4807711;29;45284;-76
2023/10/12 07:53:24;;;;;;;;;6.33;5.00;;;;;27.07;42.52;101331.63;4807659;29;45569;-75
2023/10/12 07:56:06;;;;;;;;;5.00;5.00;;;;;27.01;42.14;101327.06;4807502;29;45469;-76
2023/10/12 07:58:31;;;;;;;;;7.67;6.00;;;;;26.94;42.79;101318.25;4807636;29;45331;-76
2023/10/12 08:01:20;;;;;;;;;5.00;5.00;;;;;26.96;42.73;101327.69;4807332;29;45377;-75
2023/10/12 08:03:50;;;;;;;;;5.00;5.00;;;;;27.04;42.25;101341.88;4810724;29;45488;-75
2023/10/12 08:06:16;;;;;;;;;6.00;6.00;;;;;27.07;42.43;101344.16;4825710;29;45445;-76
2023/10/12 08:08:42;;;;;;;;;4.00;4.00;;;;;27.06;42.75;101345.19;4825101;29;45282;-75
2023/10/12 08:11:40;;;;;;;;;4.00;3.00;;;;;27.06;42.56;101348.66;4824156;29;45501;-75
2023/10/12 08:14:09;;;;;;;;;4.67;3.67;;;;;27.07;42.63;101349.47;4825443;29;46405;-76
2023/10/12 08:16:40;;;;;;;;;5.33;5.33;;;;;26.92;42.08;101320.28;4825472;29;45378;-75
2023/10/12 08:21:38;;;;;;;;;10.00;8.00;;;;;27.03;42.73;101348.25;4825591;29;45242;-76
2023/10/12 08:26:35;;;;;;;;;4.33;4.33;;;;;26.87;42.22;101320.06;4812062;29;45656;-75
2023/10/12 08:29:09;;;;;;;;;8.00;6.00;;;;;26.96;42.09;101332.19;4807152;29;45608;-75
2023/10/12 08:31:45;;;;;;;;;7.33;4.00;;;;;27.03;42.06;101350.94;4807128;29;45321;-75
2023/10/12 08:37:17;;;;;;;;;6.33;5.33;;;;;27.07;42.49;101357.50;4804777;29;45480;-75
2023/10/12 08:39:51;;;;;;;;;4.33;4.00;;;;;27.06;42.01;101356.66;4804395;29;45495;-76
2023/10/12 08:44:50;;;;;;;;;4.67;4.67;;;;;27.07;42.12;101347.66;4804462;29;46199;-76
2023/10/12 08:47:25;;;;;;;;;4.33;4.33;;;;;27.07;42.28;101344.16;4804564;29;45368;-76
2023/10/12 08:50:01;;;;;;;;;4.00;4.00;;;;;26.99;42.76;101337.16;4804744;29;45361;-75
2023/10/12 08:52:28;;;;;;;;;6.00;4.33;;;;;27.04;42.22;101341.88;4804716;29;45434;-75
2023/10/12 08:57:55;;;;;;;;;6.33;6.00;;;;;27.07;42.43;101338.81;4804584;29;45391;-76
2023/10/12 09:05:46;;;;;;;;;4.67;4.67;;;;;26.99;42.71;101326.47;4822724;29;45348;-75
2023/10/12 09:13:35;;;;;;;;;5.67;4.33;;;;;26.92;42.21;101320.28;4823210;29;45489;-76
2023/10/12 09:16:07;;;;;;;;;2.00;2.00;;;;;26.94;42.87;101327.06;4824762;29;45273;-75
2023/10/12 09:18:56;;;;;;;;;7.00;5.33;;;;;26.99;42.76;101331.81;4824845;29;45420;-76
2023/10/12 09:21:42;;;;;;;;;6.33;5.33;;;;;26.90;42.42;101325.84;4823727;29;45393;-76
2023/10/12 09:26:50;;;;;;;;;6.00;6.00;;;;;27.08;42.09;101351.16;4809741;29;46200;-75
2023/10/12 09:29:23;;;;;;;;;5.00;5.00;;;;;27.06;42.64;101343.31;4806302;29;45425;-76
2023/10/12 09:32:12;;;;;;;;;3.67;3.67;;;;;27.00;42.56;101337.97;4806474;29;45334;-75
2023/10/12 09:34:42;;;;;;;;;4.33;4.33;;;;;26.77;42.63;101304.44;4806410;29;45404;-76
2023/10/12 09:37:16;;;;;;;;;5.00;4.00;;;;;26.96;42.15;101343.72;4806138;29;45329;-75
2023/10/12 09:39:41;;;;;;;;;5.00;5.00;;;;;27.04;42.44;101352.56;4805839;29;45391;-75
2023/10/12 09:42:19;;;;;;;;;3.67;3.67;;;;;26.90;42.26;101328.53;4806268;29;45372;-75
2023/10/12 09:44:49;;;;;;;;;6.67;5.00;;;;;27.05;42.67;101360.38;4806286;29;45402;-75
2023/10/12 09:47:23;;;;;;;;;5.00;4.00;;;;;26.92;42.73;101331.81;4806058;29;46290;-75
2023/10/12 09:49:55;;;;;;;;;3.67;2.00;;;;;27.00;42.70;101344.13;4806122;29;45457;-75
2023/10/12 09:52:24;;;;;;;;;5.00;5.00;;;;;27.01;42.15;101339.63;4805829;29;45386;-76
2023/10/12 09:54:57;;;;;;;;;6.00;6.00;;;;;26.98;42.50;101337.34;4806177;29;45282;-75
2023/10/12 09:57:26;;;;;;;;;5.67;5.00;;;;;27.05;42.60;101341.69;4805613;29;45362;-75
2023/10/12 10:00:18;;;;;;;;;6.33;6.33;;;;;27.04;42.07;101339.19;4805731;29;45473;-76
2023/10/12 10:02:49;;;;;;;;;4.00;4.00;;;;;27.05;42.16;101348.88;4806077;29;45401;-76
2023/10/12 10:07:55;;;;;;;;;6.00;6.00;;;;;27.00;42.89;101340.66;4805462;29;46196;-75
2023/10/12 10:10:33;;;;;;;;;8.00;8.00;;;;;26.95;42.59;101325.25;4805767;29;45382;-76
2023/10/12 10:13:00;;;;;;;;;6.00;4.67;;;;;27.03;42.21;101353.59;4805950;29;45360;-75
2023/10/12 10:15:37;;;;;;;;;5.33;5.33;;;;;27.02;42.33;101347.44;4805708;29;45491;-76
2023/10/12 10:18:04;;;;;;;;;5.00;5.00;;;;;26.95;42.48;101339.41;4805763;29;46498;-76
2023/10/12 10:20:46;;;;;;;;;5.00;5.00;;;;;26.96;42.37;101342.88;4805650;29;45573;-76
2023/10/12 10:23:14;;;;;;;;;6.00;4.00;;;;;27.02;42.24;101352.78;4805535;29;45712;-76
2023/10/12 10:25:45;;;;;;;;;5.67;4.67;;;;;27.05;42.41;101356.88;4805490;29;45821;-75
2023/10/12 10:28:23;;;;;;;;;5.33;5.33;;;;;27.03;42.95;101354.44;4805460;29;47166;-76
2023/10/12 10:30:50;;;;;;;;;4.00;4.00;;;;;27.05;42.09;101355.03;4805547;29;45333;-76
2023/10/12 10:33:22;;;;;;;;;6.00;6.00;;;;;27.05;42.86;101355.03;4808439;29;45404;-76
2023/10/12 10:44:27;;;;;;;;;6.67;6.00;;;;;26.98;42.52;101342.69;4808569;29;45333;-75
2023/10/12 10:46:57;;;;;;;;;5.33;5.33;;;;;26.96;42.24;101340.22;4808388;29;45271;-76
2023/10/12 10:49:30;;;;;;;;;5.33;5.33;;;;;26.98;42.32;101346.19;4808313;29;46384;-76
2023/10/12 10:54:33;;;;;;;;;7.33;7.00;;;;;27.05;42.81;101354.22;4808542;29;45443;-77
2023/10/12 10:56:59;;;;;;;;;4.00;4.00;;;;;26.96;42.79;101340.22;4808450;29;45299;-76
2023/10/12 10:59:25;;;;;;;;;4.00;4.00;;;;;26.94;42.38;101336.94;4808032;29;46339;-76
2023/10/12 11:01:52;;;;;;;;;5.00;5.00;;;;;27.05;42.90;101359.56;4808435;29;45415;-77
2023/10/12 11:04:55;;;;;;;;;6.00;6.00;;;;;26.90;42.46;101333.03;4816117;29;45349;-76
2023/10/12 11:07:15;;;;;;;;;6.00;6.00;;;;;27.04;42.38;101361.41;4827152;29;45456;-76
2023/10/12 11:12:22;;;;;;;;;7.00;5.00;;;;;27.03;42.69;101340.25;4826585;29;45389;-75
2023/10/12 11:14:58;;;;;;;;;6.00;5.67;;;;;27.05;42.73;101344.34;4826561;29;45323;-75
2023/10/12 11:17:25;;;;;;;;;4.67;4.67;;;;;27.03;42.39;101346.41;4826550;29;45739;-75
2023/10/12 11:19:51;;;;;;;;;5.67;5.33;;;;;27.04;42.55;101339.19;4825919;29;47089;-76
2023/10/12 11:22:18;;;;;;;;;5.00;4.00;;;;;27.04;42.52;101333.84;4826332;29;45397;-76
2023/10/12 11:24:49;;;;;;;;;3.00;3.00;;;;;27.04;42.54;101339.19;4826660;29;45273;-75
2023/10/12 11:27:31;;;;;;;;;4.00;4.00;;;;;27.07;42.46;101334.28;4807890;29;45597;-76
2023/10/12 11:30:00;;;;;;;;;7.00;5.00;;;;;27.00;42.85;101336.13;4807868;29;47127;-76
2023/10/12 11:32:28;;;;;;;;;4.67;4.67;;;;;27.07;42.73;101339.63;4807911;29;45435;-76
2023/10/12 11:34:59;;;;;;;;;5.33;5.00;;;;;27.04;42.51;101336.53;4808172;29;45330;-76
2023/10/12 11:37:28;;;;;;;;;5.00;5.00;;;;;27.08;42.42;101343.13;4807884;29;45282;-76
2023/10/12 11:39:54;;;;;;;;;5.33;5.00;;;;;27.08;42.39;101343.13;4807797;29;47526;-77
2023/10/12 11:42:20;;;;;;;;;6.33;4.00;;;;;27.02;42.90;101344.75;4807874;29;45456;-76
2023/10/12 11:44:46;;;;;;;;;6.00;4.00;;;;;27.05;42.45;101351.53;4806999;29;45320;-76
2023/10/12 11:47:24;;;;;;;;;5.67;5.67;;;;;27.07;42.65;101355.66;4807902;29;45315;-76
2023/10/12 11:49:55;;;;;;;;;4.00;4.00;;;;;26.96;42.45;101337.53;4807396;29;46864;-75
2023/10/12 11:52:29;;;;;;;;;5.33;5.33;;;;;27.07;43.03;101355.66;4807681;29;45318;-76
2023/10/12 11:55:07;;;;;;;;;3.67;3.00;;;;;27.08;42.29;101359.16;4807734;29;45396;-75
2023/10/12 11:57:43;;;;;;;;;4.00;4.00;;;;;27.05;43.05;101349.69;4807596;29;45443;-75
2023/10/12 12:00:21;;;;;;;;;7.67;4.33;;;;;27.07;42.41;101344.97;4807307;29;46389;-75
2023/10/12 12:02:52;;;;;;;;;6.00;6.00;;;;;27.06;42.58;101350.53;4807085;29;45410;-75
2023/10/12 12:05:19;;;;;;;;;5.00;5.00;;;;;27.07;42.34;101344.97;4822662;29;45520;-76
2023/10/12 12:07:44;;;;;;;;;4.67;4.67;;;;;27.08;42.51;101353.81;4825849;29;45497;-76
2023/10/12 12:10:13;;;;;;;;;4.67;4.67;;;;;27.04;42.55;101342.69;4824276;29;48248;-76
2023/10/12 12:12:38;;;;;;;;;5.00;5.00;;;;;26.99;42.36;101334.47;4825810;29;45410;-76
2023/10/12 12:15:05;;;;;;;;;8.00;5.00;;;;;26.99;43.02;101322.97;4825663;29;45917;-75
2023/10/12 12:17:30;;;;;;;;;5.33;5.33;;;;;27.05;42.57;101332.84;4825392;29;45443;-75
2023/10/12 12:19:56;;;;;;;;;6.33;6.00;;;;;26.80;42.97;101294.22;4825538;29;45370;-76
2023/10/12 12:22:25;;;;;;;;;4.00;4.00;;;;;27.06;42.54;101337.97;4825515;29;45438;-76
2023/10/12 12:24:50;;;;;;;;;4.33;4.33;;;;;26.85;43.07;101312.28;4825460;29;45346;-75
2023/10/12 12:29:59;;;;;;;;;7.00;5.00;;;;;26.94;42.63;101320.91;4807299;29;45347;-76
2023/10/12 12:32:27;;;;;;;;;4.00;4.00;;;;;26.85;42.63;101310.41;4806704;29;45316;-76
2023/10/12 12:34:54;;;;;;;;;5.00;5.00;;;;;27.02;42.54;101328.72;4807193;29;45349;-76
2023/10/12 12:37:20;;;;;;;;;7.67;6.00;;;;;27.10;42.77;101346.41;4807152;29;45738;-75
2023/10/12 12:40:00;;;;;;;;;5.33;4.00;;;;;27.13;43.10;101348.72;4806849;29;46463;-75
2023/10/12 12:42:26;;;;;;;;;8.67;5.00;;;;;27.05;42.52;101322.16;4806900;29;45291;-76
2023/10/12 12:44:52;;;;;;;;;5.33;5.33;;;;;27.02;42.77;101307.38;4806871;29;45440;-76
2023/10/12 12:47:18;;;;;;;;;5.33;5.00;;;;;27.13;43.04;101332.69;4806676;29;45411;-75
2023/10/12 12:49:43;;;;;;;;;5.00;5.00;;;;;27.13;42.98;101326.53;4806638;29;47072;-75
2023/10/12 12:52:09;;;;;;;;;5.00;5.00;;;;;27.17;42.38;101344.59;4806862;29;45466;-75
2023/10/12 12:54:35;;;;;;;;;7.00;5.00;;;;;27.06;42.89;101321.94;4806951;29;45392;-76
2023/10/12 12:57:00;;;;;;;;;5.33;4.33;;;;;27.09;42.28;101331.41;4806737;29;45393;-75
2023/10/12 12:59:27;;;;;;;;;5.00;5.00;;;;;27.12;42.34;101323.00;4806540;29;45422;-76
2023/10/12 13:01:53;;;;;;;;;9.67;5.67;;;;;27.18;43.03;101332.06;4806460;29;45481;-75
2023/10/12 13:04:19;;;;;;;;;4.00;4.00;;;;;27.17;42.84;101328.56;4814292;29;45335;-76
2023/10/12 13:06:44;;;;;;;;;4.00;4.00;;;;;27.13;42.92;101316.66;4825114;29;45372;-75
2023/10/12 13:09:28;;;;;;;;;6.00;4.00;;;;;27.21;42.30;101323.66;4824736;29;45407;-76
2023/10/12 13:11:54;;;;;;;;;4.67;4.33;;;;;27.21;43.28;101317.50;4824937;29;45450;-75
2023/10/12 13:14:19;;;;;;;;;4.00;4.00;;;;;27.09;42.88;101294.00;4824942;29;45421;-75
2023/10/12 13:16:44;;;;;;;;;6.00;5.00;;;;;27.22;42.41;101321.81;4824520;29;45370;-75
2023/10/12 13:19:11;;;;;;;;;3.33;3.33;;;;;27.22;42.91;101327.16;4824773;29;46977;-75
2023/10/12 13:21:41;;;;;;;;;4.67;4.00;;;;;27.19;43.13;101315.03;4824739;29;45397;-76